Time;durP1;ratioP1;P1;durP2;ratioP2;P2;SDS_P1;SDS_P2;PMS_P1;PMS_P2;Temp;Humidity;BMP_temperature;BMP_pressure;BME280_temperature;BME280_humidity;BME280_pressure;Samples;Min_cycle;Max_cycle;Signal;HPM_P1;HPM_P2
2022/11/25 00:01:59;;;;;;;58.13;20.40;;;7.50;95.30;;;;;;5053316;28;20032;-70
2022/11/25 00:04:25;;;;;;;29.63;15.77;;;7.40;95.10;;;;;;5052420;28;20120;-70
2022/11/25 00:06:51;;;;;;;22.30;13.03;;;7.50;95.20;;;;;;5052966;28;20061;-70
2022/11/25 00:09:16;;;;;;;23.23;12.90;;;7.50;95.20;;;;;;5052939;28;20423;-70
2022/11/25 00:11:42;;;;;;;16.83;11.63;;;7.40;95.10;;;;;;5052918;28;20395;-70
2022/11/25 00:14:13;;;;;;;17.40;12.20;;;7.40;95.10;;;;;;5052503;28;20458;-70
2022/11/25 00:16:39;;;;;;;17.23;11.80;;;7.40;95.00;;;;;;5052967;28;20041;-70
2022/11/25 00:19:05;;;;;;;18.27;11.40;;;7.40;95.10;;;;;;5052935;28;20121;-70
2022/11/25 00:21:32;;;;;;;15.53;10.47;;;7.40;95.20;;;;;;5052743;28;20033;-70
2022/11/25 00:24:01;;;;;;;19.53;11.63;;;7.40;95.10;;;;;;5052526;28;20036;-70
2022/11/25 00:26:28;;;;;;;15.40;11.13;;;7.40;95.20;;;;;;5052740;28;20040;-70
2022/11/25 00:28:57;;;;;;;20.43;12.10;;;7.40;95.30;;;;;;5052373;28;20049;-70
2022/11/25 00:31:29;;;;;;;18.03;12.37;;;7.40;95.20;;;;;;5052760;28;20088;-70
2022/11/25 00:33:55;;;;;;;20.37;12.43;;;7.40;95.20;;;;;;5052659;28;20116;-70
2022/11/25 00:36:26;;;;;;;18.73;13.53;;;7.40;95.20;;;;;;5052526;28;20056;-70
2022/11/25 00:38:57;;;;;;;18.80;12.53;;;7.30;95.20;;;;;;5052496;28;20174;-70
2022/11/25 00:44:34;;;;;;;20.00;12.17;;;7.30;95.40;;;;;;5010939;28;20138;-70
2022/11/25 00:47:01;;;;;;;18.00;12.17;;;7.30;95.30;;;;;;5010364;28;20489;-69
2022/11/25 00:49:27;;;;;;;20.20;12.57;;;7.30;95.30;;;;;;5031923;28;20041;-70
2022/11/25 00:51:53;;;;;;;22.47;13.13;;;7.20;95.50;;;;;;5052667;28;20115;-70
2022/11/25 00:54:18;;;;;;;17.63;11.70;;;7.20;96.00;;;;;;5052453;28;20065;-70
2022/11/25 00:56:44;;;;;;;16.37;11.97;;;7.30;96.00;;;;;;5052458;28;20048;-70
2022/11/25 00:59:10;;;;;;;18.90;12.37;;;7.30;96.10;;;;;;5052446;28;20104;-70
2022/11/25 01:01:35;;;;;;;17.73;12.33;;;7.30;96.20;;;;;;5052484;28;20039;-70
2022/11/25 01:04:02;;;;;;;20.97;12.40;;;7.30;96.30;;;;;;5052178;28;20402;-70
2022/11/25 01:06:28;;;;;;;17.63;12.07;;;7.30;96.20;;;;;;5052488;28;20040;-70
2022/11/25 01:08:54;;;;;;;17.40;11.90;;;7.40;96.20;;;;;;5052212;28;20395;-70
2022/11/25 01:11:21;;;;;;;17.10;11.87;;;7.40;96.20;;;;;;5052230;28;20063;-70
2022/11/25 01:13:47;;;;;;;17.07;11.10;;;7.40;96.30;;;;;;5052187;28;20044;-70
2022/11/25 01:16:16;;;;;;;22.80;11.00;;;7.40;96.30;;;;;;5055356;28;20045;-70
2022/11/25 01:18:42;;;;;;;16.57;10.93;;;7.40;96.40;;;;;;5056018;28;20029;-69
2022/11/25 01:21:11;;;;;;;18.80;11.33;;;7.40;96.40;;;;;;5056192;28;20033;-70
2022/11/25 01:23:37;;;;;;;15.97;10.90;;;7.40;96.40;;;;;;5056038;28;20029;-70
2022/11/25 01:26:04;;;;;;;16.17;10.70;;;7.40;96.40;;;;;;5056336;28;20037;-70
2022/11/25 01:28:31;;;;;;;17.20;10.07;;;7.40;96.60;;;;;;5055758;28;20068;-69
2022/11/25 01:31:14;;;;;;;14.87;9.70;;;7.40;96.80;;;;;;5055809;28;20072;-70
2022/11/25 01:33:40;;;;;;;16.40;9.70;;;7.50;96.80;;;;;;5056035;28;20068;-70
2022/11/25 01:36:09;;;;;;;16.80;10.10;;;7.50;96.50;;;;;;5055947;28;20052;-70
2022/11/25 01:38:35;;;;;;;13.70;9.53;;;7.40;96.60;;;;;;5055790;28;20036;-70
2022/11/25 01:41:02;;;;;;;15.07;10.33;;;7.50;96.50;;;;;;5056011;28;20447;-70
2022/11/25 01:43:28;;;;;;;17.73;9.20;;;7.40;96.50;;;;;;5055486;28;20032;-70
2022/11/25 01:46:15;;;;;;;18.03;9.63;;;7.40;96.50;;;;;;5055722;28;20037;-70
2022/11/25 01:48:48;;;;;;;16.57;9.53;;;7.50;96.50;;;;;;5055131;28;20025;-70
2022/11/25 01:51:36;;;;;;;13.80;9.40;;;7.40;96.30;;;;;;5055495;28;20460;-70
2022/11/25 01:54:05;;;;;;;16.07;9.73;;;7.40;96.30;;;;;;5055422;28;20048;-70
2022/11/25 01:56:40;;;;;;;14.33;9.70;;;7.40;96.30;;;;;;5055167;28;20036;-70
2022/11/25 01:59:06;;;;;;;14.23;9.53;;;7.40;96.30;;;;;;5052543;28;20041;-70
2022/11/25 02:01:32;;;;;;;14.53;9.40;;;7.40;96.20;;;;;;5052339;28;20051;-70
2022/11/25 02:03:58;;;;;;;12.37;9.27;;;7.40;96.30;;;;;;5052712;28;20037;-70
2022/11/25 02:06:28;;;;;;;12.93;9.03;;;7.40;96.30;;;;;;5037088;28;20373;-70
2022/11/25 02:09:03;;;;;;;17.57;9.23;;;7.30;96.20;;;;;;5054804;28;20021;-70
2022/11/25 02:11:30;;;;;;;13.57;9.00;;;7.30;96.10;;;;;;5055141;28;20479;-70
2022/11/25 02:13:58;;;;;;;12.30;8.97;;;7.30;96.00;;;;;;5054876;28;20094;-70
2022/11/25 02:16:24;;;;;;;18.03;9.23;;;7.20;95.90;;;;;;5054784;28;20529;-70
2022/11/25 02:18:50;;;;;;;12.87;8.97;;;7.20;95.70;;;;;;5055170;28;20068;-70
2022/11/25 02:21:35;;;;;;;12.40;8.47;;;7.20;95.60;;;;;;5054356;28;20040;-70
2022/11/25 02:24:23;;;;;;;15.87;9.10;;;7.20;95.70;;;;;;5054740;28;20040;-70
2022/11/25 02:26:48;;;;;;;15.93;9.57;;;7.20;95.70;;;;;;5054094;28;20037;-70
2022/11/25 02:29:14;;;;;;;12.53;8.73;;;7.10;95.60;;;;;;5054292;28;20048;-70
2022/11/25 02:31:40;;;;;;;16.27;9.23;;;7.10;95.60;;;;;;5054504;28;20037;-69
2022/11/25 02:34:08;;;;;;;14.53;9.23;;;7.10;95.60;;;;;;5054567;28;20510;-70
2022/11/25 02:36:34;;;;;;;17.43;9.17;;;7.10;95.60;;;;;;5054579;28;20504;-70
2022/11/25 02:39:00;;;;;;;12.90;9.23;;;7.00;95.60;;;;;;5054499;28;20120;-70
2022/11/25 02:41:51;;;;;;;13.90;9.20;;;7.00;95.60;;;;;;5054686;28;20033;-70
2022/11/25 02:44:17;;;;;;;17.43;9.73;;;7.00;95.60;;;;;;5054169;28;20384;-70
2022/11/25 02:46:43;;;;;;;14.07;9.97;;;7.00;95.70;;;;;;5054377;28;20033;-70
2022/11/25 02:49:09;;;;;;;17.47;9.67;;;7.00;95.70;;;;;;5054256;28;20048;-70
2022/11/25 02:51:34;;;;;;;16.57;9.80;;;6.90;95.60;;;;;;5054351;28;20111;-70
2022/11/25 02:54:01;;;;;;;14.67;8.93;;;6.90;95.60;;;;;;5054060;28;20032;-70
2022/11/25 02:56:29;;;;;;;13.20;9.13;;;6.90;95.70;;;;;;5054025;28;20049;-70
2022/11/25 02:58:55;;;;;;;12.03;8.63;;;6.90;95.70;;;;;;5054559;28;20159;-70
2022/11/25 03:01:21;;;;;;;15.13;8.60;;;6.90;95.90;;;;;;5054045;28;20490;-70
2022/11/25 03:03:47;;;;;;;15.13;8.73;;;6.90;95.90;;;;;;5054129;28;20025;-70
2022/11/25 03:06:13;;;;;;;11.13;8.10;;;6.90;95.90;;;;;;5054167;28;20069;-70
2022/11/25 03:08:38;;;;;;;14.73;8.60;;;6.80;95.90;;;;;;5054132;28;20335;-70
2022/11/25 03:11:05;;;;;;;13.63;8.47;;;6.80;95.90;;;;;;5054090;28;20387;-70
2022/11/25 03:13:30;;;;;;;12.50;7.73;;;6.80;95.90;;;;;;5054073;28;20380;-69
2022/11/25 03:15:56;;;;;;;12.50;8.27;;;6.80;95.80;;;;;;5053647;28;20045;-70
2022/11/25 03:18:22;;;;;;;11.03;7.70;;;6.80;95.90;;;;;;5053997;28;20043;-70
2022/11/25 03:20:52;;;;;;;14.77;8.00;;;6.90;95.90;;;;;;5054049;28;20122;-70
2022/11/25 03:23:18;;;;;;;10.63;7.33;;;6.80;95.90;;;;;;5053970;28;20023;-70
2022/11/25 03:25:44;;;;;;;13.70;7.60;;;6.80;96.00;;;;;;5053308;28;20048;-70
2022/11/25 03:28:09;;;;;;;12.70;7.87;;;6.80;96.10;;;;;;5053524;28;20116;-70
2022/11/25 03:30:35;;;;;;;12.13;7.83;;;6.80;96.20;;;;;;5053958;28;20041;-69
2022/11/25 03:33:01;;;;;;;10.53;7.37;;;6.80;96.30;;;;;;5053439;28;20032;-70
2022/11/25 03:35:27;;;;;;;9.77;7.47;;;6.90;96.40;;;;;;5053939;28;20059;-70
2022/11/25 03:37:52;;;;;;;10.70;7.27;;;6.90;96.40;;;;;;5052896;28;20490;-70
2022/11/25 07:22:56;;;;;;;15.20;6.03;;;7.10;96.60;;;;;;5037388;28;20098;-72
2022/11/25 07:25:21;;;;;;;11.50;5.87;;;7.10;96.60;;;;;;5055174;28;20049;-70
2022/11/25 07:27:48;;;;;;;10.53;6.33;;;7.10;96.60;;;;;;5073460;28;20067;-68
2022/11/25 07:30:15;;;;;;;16.07;6.00;;;7.10;96.80;;;;;;5072906;28;20482;-68
2022/11/25 07:32:40;;;;;;;12.90;5.97;;;7.10;96.90;;;;;;5064407;28;20402;-69
2022/11/25 07:35:06;;;;;;;10.47;6.27;;;7.10;96.90;;;;;;5052916;28;20120;-68
2022/11/25 07:37:32;;;;;;;8.63;5.27;;;7.20;97.00;;;;;;5053322;28;20029;-68
2022/11/25 07:39:58;;;;;;;10.70;6.37;;;7.20;97.00;;;;;;5052987;28;20039;-67
2022/11/25 07:42:24;;;;;;;15.43;8.87;;;7.20;96.90;;;;;;5052837;28;20098;-67
2022/11/25 07:44:49;;;;;;;23.50;8.63;;;7.20;96.90;;;;;;5053142;28;20399;-68
2022/11/25 07:47:15;;;;;;;22.37;8.20;;;7.30;96.90;;;;;;5052806;28;20399;-68
2022/11/25 07:49:40;;;;;;;17.73;9.03;;;7.30;96.80;;;;;;5052600;28;20189;-69
2022/11/25 07:52:07;;;;;;;18.67;8.73;;;7.40;96.70;;;;;;5052350;28;20061;-67
2022/11/25 07:54:33;;;;;;;17.23;7.57;;;7.40;96.60;;;;;;5052779;28;20399;-69
2022/11/25 07:56:59;;;;;;;21.80;7.30;;;7.50;96.60;;;;;;5052740;28;20037;-68
2022/11/25 07:59:24;;;;;;;20.83;8.17;;;7.50;96.60;;;;;;5052703;28;20037;-68
2022/11/25 08:01:52;;;;;;;23.43;7.50;;;7.50;96.70;;;;;;5028066;28;20055;-68
2022/11/25 08:04:17;;;;;;;18.97;6.30;;;7.60;96.80;;;;;;5052555;28;20041;-69
2022/11/25 08:06:45;;;;;;;12.70;6.20;;;7.60;96.80;;;;;;5052395;28;20116;-68
2022/11/25 08:09:19;;;;;;;12.20;4.90;;;7.60;96.80;;;;;;5052042;28;20119;-68
2022/11/25 08:11:45;;;;;;;10.87;4.10;;;7.70;96.70;;;;;;5052411;28;20045;-68
2022/11/25 08:14:11;;;;;;;7.27;3.70;;;7.70;96.90;;;;;;5052486;28;20032;-69
2022/11/25 08:16:37;;;;;;;5.83;2.97;;;7.70;96.40;;;;;;5053002;28;20107;-69
2022/11/25 08:19:05;;;;;;;5.93;3.00;;;7.80;96.30;;;;;;5052916;28;20103;-68
2022/11/25 08:21:31;;;;;;;4.03;2.50;;;7.80;96.10;;;;;;5052502;28;20036;-69
2022/11/25 08:23:56;;;;;;;6.13;2.70;;;7.90;95.90;;;;;;5052464;28;20041;-68
2022/11/25 08:26:36;;;;;;;6.60;2.70;;;7.90;95.70;;;;;;5052586;28;20400;-68
2022/11/25 08:29:04;;;;;;;7.03;3.13;;;8.00;95.70;;;;;;5052696;28;20056;-68
2022/11/25 08:31:35;;;;;;;5.23;2.77;;;8.00;95.50;;;;;;5052557;28;20029;-67
2022/11/25 08:34:02;;;;;;;4.90;2.80;;;8.00;95.40;;;;;;5052409;28;20037;-67
2022/11/25 08:36:29;;;;;;;3.87;2.67;;;8.10;95.40;;;;;;5052441;28;20045;-68
2022/11/25 08:38:56;;;;;;;9.37;4.23;;;8.10;95.30;;;;;;5052246;28;20029;-70
2022/11/25 08:41:32;;;;;;;7.47;3.13;;;8.10;95.10;;;;;;5052969;28;20439;-69
2022/11/25 08:44:00;;;;;;;8.13;3.17;;;8.10;95.10;;;;;;5052561;28;20040;-68
2022/11/25 08:46:29;;;;;;;4.67;2.70;;;8.10;95.10;;;;;;5052733;28;20037;-68
2022/11/25 08:48:55;;;;;;;4.27;3.00;;;8.10;95.10;;;;;;5052551;28;20418;-70
2022/11/25 08:51:28;;;;;;;4.53;2.60;;;8.10;95.00;;;;;;5052733;28;20101;-68
2022/11/25 08:53:54;;;;;;;12.05;3.05;;;8.20;95.00;;;;;;5052435;28;20040;-67
2022/11/25 08:56:21;;;;;;;4.83;2.97;;;8.10;94.90;;;;;;5052490;28;20488;-69
2022/11/25 08:58:49;;;;;;;4.60;2.67;;;8.20;94.90;;;;;;5052201;28;20143;-69
2022/11/25 09:01:16;;;;;;;6.83;3.50;;;8.20;94.80;;;;;;5052516;28;20036;-66
2022/11/25 09:03:46;;;;;;;8.27;3.10;;;8.20;94.90;;;;;;5052330;28;20062;-66
2022/11/25 09:06:13;;;;;;;8.80;4.13;;;8.20;94.90;;;;;;5052576;28;20087;-66
2022/11/25 09:08:41;;;;;;;10.07;4.57;;;8.30;95.00;;;;;;5052347;28;20037;-67
2022/11/25 09:11:07;;;;;;;6.33;4.10;;;8.40;94.70;;;;;;5052312;28;20025;-67
2022/11/25 09:13:33;;;;;;;6.93;3.57;;;8.50;94.70;;;;;;5052466;28;20091;-68
2022/11/25 09:16:00;;;;;;;7.07;3.33;;;8.50;94.60;;;;;;5052369;28;20048;-67
2022/11/25 09:18:29;;;;;;;7.13;2.23;;;8.60;94.50;;;;;;5052481;28;20057;-67
2022/11/25 09:20:56;;;;;;;6.30;2.67;;;8.70;94.50;;;;;;5052696;28;20041;-67
2022/11/25 09:23:22;;;;;;;3.63;2.00;;;8.70;94.50;;;;;;5052395;28;20045;-68
2022/11/25 09:25:52;;;;;;;6.17;2.33;;;8.80;94.40;;;;;;5052341;28;20036;-68
2022/11/25 09:28:19;;;;;;;6.03;2.53;;;8.90;94.30;;;;;;5052151;28;20029;-68
2022/11/25 09:30:45;;;;;;;3.93;2.03;;;8.90;94.20;;;;;;5051745;28;20099;-68
2022/11/25 09:33:10;;;;;;;7.10;2.57;;;9.00;94.20;;;;;;5052006;28;20033;-67
2022/11/25 09:35:36;;;;;;;3.77;2.30;;;9.10;94.20;;;;;;5052706;28;20127;-68
2022/11/25 09:38:02;;;;;;;4.07;2.50;;;9.20;94.20;;;;;;5054592;28;20499;-68
2022/11/25 09:40:57;;;;;;;6.53;2.30;;;9.30;94.20;;;;;;5053805;28;20033;-68
2022/11/25 09:46:52;;;;;;;4.77;2.23;;;9.50;94.00;;;;;;5055755;28;20557;-68
2022/11/25 09:49:27;;;;;;;5.47;2.87;;;9.60;94.00;;;;;;5055718;28;20041;-68
2022/11/25 09:52:26;;;;;;;4.57;2.30;;;9.80;93.90;;;;;;5054926;28;20029;-67
2022/11/25 09:55:04;;;;;;;5.10;2.87;;;9.80;93.90;;;;;;5055655;28;20098;-68
2022/11/25 09:58:09;;;;;;;6.10;2.50;;;9.90;93.80;;;;;;5055384;28;20052;-67
2022/11/25 10:00:43;;;;;;;4.40;2.63;;;10.00;93.70;;;;;;5021920;28;20111;-68
2022/11/25 10:03:28;;;;;;;7.27;2.90;;;10.10;93.50;;;;;;5055558;28;20040;-68
2022/11/25 10:06:06;;;;;;;7.47;2.53;;;10.10;93.30;;;;;;5055208;28;20033;-68
2022/11/25 10:08:38;;;;;;;6.57;2.67;;;10.20;93.30;;;;;;5055281;28;20037;-68
2022/11/25 10:11:43;;;;;;;8.88;3.97;;;10.20;93.20;;;;;;5055282;28;20033;-68
2022/11/25 10:14:27;;;;;;;7.60;2.43;;;10.20;93.20;;;;;;5055059;28;20037;-67
2022/11/25 10:17:19;;;;;;;5.97;2.28;;;10.30;93.20;;;;;;5055148;28;20399;-67
2022/11/25 10:20:09;;;;;;;6.55;2.33;;;10.30;93.00;;;;;;5054968;28;20027;-67
2022/11/25 10:22:40;;;;;;;3.87;2.57;;;10.30;93.10;;;;;;5054646;28;20049;-68
2022/11/25 10:25:14;;;;;;;5.57;2.35;;;10.30;93.20;;;;;;5054800;28;20027;-67
2022/11/25 10:27:48;;;;;;;9.10;2.70;;;10.30;93.20;;;;;;5054915;28;20403;-67
2022/11/25 10:30:31;;;;;;;10.82;2.78;;;10.30;93.20;;;;;;5054952;28;20088;-67
2022/11/25 10:33:45;;;;;;;6.47;2.72;;;10.30;93.30;;;;;;5054694;28;20041;-67
2022/11/25 10:36:27;;;;;;;6.22;2.80;;;10.40;93.40;;;;;;5041664;28;20037;-66
2022/11/25 10:38:59;;;;;;;6.30;2.90;;;10.40;93.40;;;;;;5054675;28;20048;-67
2022/11/25 10:41:33;;;;;;;5.80;2.70;;;10.40;93.20;;;;;;5054717;28;20037;-66
2022/11/25 10:43:59;;;;;;;5.45;2.90;;;10.40;93.10;;;;;;5054585;28;20037;-66
2022/11/25 10:46:45;;;;;;;6.07;2.45;;;10.40;93.10;;;;;;5054507;28;20047;-66
2022/11/25 10:49:19;;;;;;;7.30;3.10;;;10.40;93.30;;;;;;5054094;28;20111;-67
2022/11/25 10:51:46;;;;;;;7.68;3.03;;;10.50;93.20;;;;;;5054447;28;20104;-66
2022/11/25 10:54:23;;;;;;;5.90;2.60;;;10.50;93.30;;;;;;5054555;28;20039;-66
2022/11/25 10:56:59;;;;;;;7.30;3.28;;;10.50;93.50;;;;;;5054190;28;20147;-67
2022/11/25 10:59:39;;;;;;;5.53;3.08;;;10.50;93.40;;;;;;5054238;28;20040;-67
2022/11/25 11:02:22;;;;;;;9.63;3.30;;;10.50;93.40;;;;;;5054344;28;20126;-66
2022/11/25 11:05:10;;;;;;;8.90;2.92;;;10.60;93.40;;;;;;5052523;28;20033;-65
2022/11/25 11:07:42;;;;;;;4.20;2.85;;;10.60;93.40;;;;;;5053387;28;20033;-66
2022/11/25 11:10:13;;;;;;;4.80;2.72;;;10.60;93.30;;;;;;5053567;28;20040;-66
2022/11/25 11:12:57;;;;;;;5.50;2.50;;;10.50;93.30;;;;;;5053022;28;20065;-66
2022/11/25 11:15:25;;;;;;;5.70;2.40;;;10.50;93.30;;;;;;5052078;28;20700;-67
2022/11/25 11:17:55;;;;;;;4.85;2.50;;;10.60;93.40;;;;;;5053123;28;20033;-66
2022/11/25 11:20:26;;;;;;;4.80;2.63;;;10.60;93.30;;;;;;5052496;28;20069;-66
2022/11/25 11:23:08;;;;;;;7.30;2.72;;;10.60;93.40;;;;;;5057487;28;20505;-66
2022/11/25 11:25:39;;;;;;;10.60;2.58;;;10.60;93.30;;;;;;5073168;28;20037;-66
2022/11/25 11:28:43;;;;;;;6.07;2.53;;;10.60;93.40;;;;;;5073261;28;20033;-67
2022/11/25 11:31:19;;;;;;;5.53;2.97;;;10.60;93.30;;;;;;4991492;28;20133;-66
2022/11/25 11:34:20;;;;;;;10.45;2.90;;;10.60;93.30;;;;;;4991563;28;20034;-66
2022/11/25 11:37:04;;;;;;;8.23;2.55;;;10.70;93.40;;;;;;5017720;28;20079;-66
2022/11/25 11:39:59;;;;;;;8.70;2.75;;;10.70;93.30;;;;;;5072863;28;20102;-66
2022/11/25 11:42:28;;;;;;;5.32;2.72;;;10.70;93.40;;;;;;5071351;28;20390;-65
2022/11/25 11:45:28;;;;;;;5.38;2.58;;;10.70;93.30;;;;;;5073604;28;20074;-66
2022/11/25 11:48:02;;;;;;;5.90;2.53;;;10.70;93.50;;;;;;5073305;28;20044;-69
2022/11/25 11:50:32;;;;;;;5.85;2.42;;;10.80;93.60;;;;;;5069937;28;20036;-66
2022/11/25 11:53:49;;;;;;;5.80;2.55;;;10.70;93.60;;;;;;5070410;28;20449;-67
2022/11/25 11:56:31;;;;;;;8.50;3.13;;;10.80;93.70;;;;;;5027773;28;20044;-66
2022/11/25 11:59:07;;;;;;;8.60;3.53;;;10.80;93.70;;;;;;5072231;28;20028;-67
2022/11/25 12:02:03;;;;;;;12.82;3.63;;;10.80;93.60;;;;;;5072772;28;20346;-66
2022/11/25 12:04:42;;;;;;;8.43;3.55;;;10.80;93.60;;;;;;5072616;28;20127;-66
2022/11/25 12:07:34;;;;;;;10.15;3.95;;;10.90;93.80;;;;;;5072884;28;20475;-66
2022/11/25 12:10:17;;;;;;;5.72;3.50;;;10.80;93.70;;;;;;5072904;28;20119;-65
2022/11/25 12:13:21;;;;;;;9.18;3.70;;;10.90;93.70;;;;;;5072757;28;20024;-66
2022/11/25 12:16:14;;;;;;;9.55;3.08;;;10.90;93.70;;;;;;5072812;28;20044;-67
2022/11/25 12:19:00;;;;;;;5.00;3.28;;;10.90;93.80;;;;;;5073071;28;20046;-67
2022/11/25 12:21:47;;;;;;;6.38;3.13;;;11.00;93.60;;;;;;5072476;28;20048;-67
2022/11/25 12:24:22;;;;;;;7.20;2.95;;;11.00;93.50;;;;;;5072585;28;20064;-66
2022/11/25 12:26:57;;;;;;;6.10;2.67;;;11.00;93.40;;;;;;5072380;28;20124;-69
2022/11/25 12:29:43;;;;;;;7.38;3.10;;;11.00;93.40;;;;;;5072712;28;20391;-67
2022/11/25 12:32:33;;;;;;;5.20;2.90;;;11.10;93.40;;;;;;5069655;28;20782;-67
2022/11/25 12:35:15;;;;;;;5.38;2.58;;;11.10;93.30;;;;;;5070263;28;20044;-66
2022/11/25 12:38:03;;;;;;;9.52;2.95;;;11.10;93.40;;;;;;5070978;28;20097;-67
2022/11/25 12:40:36;;;;;;;5.75;2.85;;;11.10;93.40;;;;;;5069948;28;20060;-67
2022/11/25 12:43:27;;;;;;;9.43;3.55;;;11.20;93.40;;;;;;5069785;28;20554;-67
2022/11/25 12:46:32;;;;;;;10.45;3.08;;;11.20;93.40;;;;;;5034542;28;20047;-67
2022/11/25 12:48:58;;;;;;;7.65;3.75;;;11.20;93.40;;;;;;5072075;28;20037;-66
2022/11/25 12:51:33;;;;;;;5.63;3.70;;;11.20;93.50;;;;;;5072826;28;20040;-67
2022/11/25 12:54:16;;;;;;;7.80;3.95;;;11.20;93.30;;;;;;5072322;28;20029;-69
2022/11/25 12:56:53;;;;;;;9.25;3.67;;;11.20;93.60;;;;;;5072326;28;20086;-67
2022/11/25 12:59:49;;;;;;;8.65;3.55;;;11.30;93.40;;;;;;5072391;28;20687;-67
2022/11/25 13:02:27;;;;;;;11.85;3.30;;;11.30;93.50;;;;;;5072615;28;20029;-67
2022/11/25 13:05:26;;;;;;;7.03;3.33;;;11.30;93.40;;;;;;5072475;28;20039;-67
2022/11/25 13:08:03;;;;;;;9.80;3.85;;;11.30;93.40;;;;;;5071976;28;20376;-67
2022/11/25 13:10:56;;;;;;;13.18;3.97;;;11.30;93.30;;;;;;5072900;28;20173;-66
2022/11/25 13:13:37;;;;;;;8.45;4.00;;;11.30;93.40;;;;;;5076422;28;20090;-67
2022/11/25 13:16:06;;;;;;;9.75;4.43;;;11.30;93.80;;;;;;5075725;28;20040;-67
2022/11/25 13:18:33;;;;;;;7.45;4.53;;;11.30;93.90;;;;;;5076037;28;20060;-66
2022/11/25 13:21:12;;;;;;;8.38;4.55;;;11.30;94.00;;;;;;5076010;28;20037;-66
2022/11/25 13:23:46;;;;;;;14.60;4.57;;;11.30;94.00;;;;;;5075680;28;20457;-67
2022/11/25 13:26:33;;;;;;;11.82;3.78;;;11.30;93.70;;;;;;5076295;28;20127;-67
2022/11/25 13:29:24;;;;;;;5.85;3.88;;;11.40;93.60;;;;;;5075992;28;20112;-67
2022/11/25 13:32:22;;;;;;;18.02;3.60;;;11.40;93.50;;;;;;5038123;28;20086;-66
2022/11/25 13:34:48;;;;;;;11.23;3.65;;;11.30;93.40;;;;;;5075837;28;20115;-67
2022/11/25 13:37:40;;;;;;;11.02;3.80;;;11.40;93.30;;;;;;5074684;28;20124;-67
2022/11/25 13:40:25;;;;;;;5.78;3.05;;;11.40;93.40;;;;;;5069156;28;20040;-67
2022/11/25 13:42:52;;;;;;;6.43;3.45;;;11.40;93.40;;;;;;5072600;28;20037;-67
2022/11/25 13:45:29;;;;;;;7.60;3.60;;;11.40;93.40;;;;;;5075833;28;20032;-67
2022/11/25 13:48:12;;;;;;;6.88;3.47;;;11.40;93.40;;;;;;5075489;28;20479;-67
2022/11/25 13:50:38;;;;;;;11.27;3.97;;;11.40;93.40;;;;;;5075423;28;20036;-67
2022/11/25 13:53:17;;;;;;;6.72;3.88;;;11.40;93.30;;;;;;5075389;28;20046;-67
2022/11/25 13:55:44;;;;;;;9.25;3.50;;;11.40;93.40;;;;;;5074191;28;20388;-67
2022/11/25 13:58:09;;;;;;;3.95;2.97;;;11.40;93.30;;;;;;5075590;28;20436;-67
2022/11/25 14:00:35;;;;;;;6.25;3.67;;;11.40;93.30;;;;;;5075631;28;20032;-67
2022/11/25 14:03:30;;;;;;;10.90;4.53;;;11.40;93.20;;;;;;5075409;28;20028;-67
2022/11/25 14:06:31;;;;;;;5.65;3.40;;;11.40;93.30;;;;;;5057877;28;20033;-67
2022/11/25 14:09:17;;;;;;;11.35;3.63;;;11.40;93.30;;;;;;5075527;28;20372;-66
2022/11/25 14:11:54;;;;;;;5.80;3.58;;;11.40;93.40;;;;;;5075022;28;20081;-69
2022/11/25 14:14:28;;;;;;;9.60;3.90;;;11.40;93.20;;;;;;5075150;28;20502;-67
2022/11/25 14:17:00;;;;;;;10.00;3.65;;;11.30;93.10;;;;;;5074766;28;20044;-69
2022/11/25 14:19:37;;;;;;;9.35;3.60;;;11.40;93.00;;;;;;5075021;28;20033;-69
2022/11/25 14:22:21;;;;;;;8.93;3.38;;;11.40;93.10;;;;;;5074069;28;20076;-69
2022/11/25 14:24:50;;;;;;;8.02;4.63;;;11.30;93.00;;;;;;5075251;28;20036;-69
2022/11/25 14:27:24;;;;;;;12.80;3.85;;;11.30;93.10;;;;;;5075096;28;20035;-66
2022/11/25 14:30:19;;;;;;;7.72;4.30;;;11.30;93.10;;;;;;5074573;28;20039;-69
2022/11/25 14:33:07;;;;;;;17.98;5.50;;;11.30;93.10;;;;;;5057887;28;20059;-69
2022/11/25 14:35:45;;;;;;;7.20;4.10;;;11.30;93.00;;;;;;5074815;28;20024;-69
2022/11/25 14:38:23;;;;;;;6.80;4.20;;;11.30;93.00;;;;;;5074641;28;20040;-66
2022/11/25 14:40:59;;;;;;;6.18;3.65;;;11.30;93.00;;;;;;5074616;28;20032;-68
2022/11/25 14:43:27;;;;;;;7.88;3.63;;;11.30;93.00;;;;;;5074651;28;20032;-69
2022/11/25 14:46:14;;;;;;;8.27;3.60;;;11.20;93.00;;;;;;5074575;28;20501;-69
2022/11/25 14:48:41;;;;;;;7.35;3.70;;;11.30;93.40;;;;;;5074827;28;20032;-69
2022/11/25 14:51:09;;;;;;;5.72;3.63;;;11.20;93.20;;;;;;5074544;28;20438;-69
2022/11/25 14:53:43;;;;;;;9.25;4.05;;;11.20;93.20;;;;;;5074861;28;20036;-68
2022/11/25 14:56:09;;;;;;;9.48;4.00;;;11.20;93.20;;;;;;5074296;28;20132;-69
2022/11/25 14:58:46;;;;;;;13.63;4.50;;;11.20;93.30;;;;;;5074241;28;20475;-69
2022/11/25 15:01:17;;;;;;;7.18;3.80;;;11.20;93.30;;;;;;5074244;28;20041;-68
2022/11/25 15:03:46;;;;;;;8.07;4.05;;;11.20;93.30;;;;;;5073963;28;20032;-66
2022/11/25 15:06:13;;;;;;;5.95;3.80;;;11.20;93.30;;;;;;5074151;28;20036;-66
2022/11/25 15:08:41;;;;;;;8.73;4.28;;;11.10;93.20;;;;;;5073997;28;20165;-66
2022/11/25 15:11:22;;;;;;;7.88;4.38;;;11.10;93.20;;;;;;5074124;28;20093;-66
2022/11/25 15:14:00;;;;;;;10.70;4.65;;;11.10;93.30;;;;;;5073966;28;20037;-66
2022/11/25 15:16:30;;;;;;;8.43;4.75;;;11.10;93.30;;;;;;5073942;28;20098;-69
2022/11/25 15:18:58;;;;;;;10.05;5.38;;;11.10;93.30;;;;;;5074038;28;20059;-66
2022/11/25 15:21:38;;;;;;;10.00;4.95;;;11.00;93.40;;;;;;5073829;28;20034;-66
2022/11/25 15:24:05;;;;;;;8.60;4.50;;;11.00;93.30;;;;;;5074242;28;20040;-69
2022/11/25 15:26:33;;;;;;;9.55;4.47;;;11.00;93.30;;;;;;5073604;28;20032;-68
2022/11/25 15:29:03;;;;;;;6.28;3.65;;;11.00;93.30;;;;;;5073927;28;20028;-68
2022/11/25 15:31:32;;;;;;;10.18;3.95;;;11.00;93.30;;;;;;5073851;28;20058;-68
2022/11/25 15:34:01;;;;;;;10.05;4.05;;;11.00;93.30;;;;;;5073569;28;20060;-68
2022/11/25 15:36:27;;;;;;;5.72;3.88;;;11.00;93.20;;;;;;5073247;28;20051;-68
2022/11/25 15:38:53;;;;;;;13.57;4.60;;;11.00;93.10;;;;;;5073302;28;20028;-69
2022/11/25 15:41:33;;;;;;;9.90;4.75;;;11.00;93.10;;;;;;5073540;28;20110;-68
2022/11/25 15:44:02;;;;;;;11.35;6.60;;;11.00;93.10;;;;;;5073849;28;20037;-68
2022/11/25 15:46:31;;;;;;;10.38;5.97;;;10.90;93.20;;;;;;5073347;28;20113;-68
2022/11/25 15:49:03;;;;;;;8.50;4.63;;;10.90;93.20;;;;;;5073041;28;20031;-68
2022/11/25 15:51:32;;;;;;;12.70;4.50;;;10.90;93.10;;;;;;5072999;28;20079;-68
2022/11/25 15:54:20;;;;;;;10.88;4.47;;;10.90;93.10;;;;;;5053332;28;20125;-68
2022/11/25 15:56:49;;;;;;;7.07;4.25;;;10.90;93.00;;;;;;5052756;28;20151;-68
2022/11/25 15:59:47;;;;;;;9.48;4.18;;;10.80;93.00;;;;;;5053092;28;20025;-68
2022/11/25 16:02:34;;;;;;;7.50;4.22;;;10.80;93.00;;;;;;5053003;28;20037;-68
2022/11/25 16:05:12;;;;;;;10.10;4.70;;;10.80;93.00;;;;;;5053188;28;20048;-68
2022/11/25 16:07:50;;;;;;;11.90;4.53;;;10.80;93.00;;;;;;5052564;28;20040;-68
2022/11/25 16:10:44;;;;;;;6.65;4.05;;;10.80;92.90;;;;;;5050954;28;20040;-68
2022/11/25 16:13:21;;;;;;;11.70;4.57;;;10.80;92.90;;;;;;5050061;28;20029;-68
2022/11/25 16:15:50;;;;;;;9.43;4.55;;;10.80;92.90;;;;;;5052394;28;20121;-68
2022/11/25 16:18:18;;;;;;;11.95;4.50;;;10.80;92.90;;;;;;5051414;28;20060;-68
2022/11/25 16:20:52;;;;;;;8.95;3.90;;;10.80;92.90;;;;;;5048510;28;20495;-69
2022/11/25 16:23:20;;;;;;;10.07;4.60;;;10.70;92.90;;;;;;5049217;28;20049;-69
2022/11/25 16:26:28;;;;;;;7.25;3.97;;;10.70;92.90;;;;;;5050964;28;20036;-69
2022/11/25 16:28:56;;;;;;;9.02;5.30;;;10.70;92.90;;;;;;5010772;28;20046;-68
2022/11/25 16:31:22;;;;;;;13.85;5.00;;;10.70;92.90;;;;;;5010901;28;20034;-68
2022/11/25 16:33:49;;;;;;;8.88;5.05;;;10.60;92.90;;;;;;5031940;28;20029;-68
2022/11/25 16:36:15;;;;;;;13.82;5.43;;;10.60;92.90;;;;;;5052712;28;20095;-69
2022/11/25 16:38:41;;;;;;;10.77;5.78;;;10.60;92.90;;;;;;5052670;28;20414;-68
2022/11/25 16:41:18;;;;;;;13.30;5.60;;;10.60;93.00;;;;;;5052554;28;20040;-68
2022/11/25 16:43:44;;;;;;;9.40;5.22;;;10.60;93.00;;;;;;5052483;28;20553;-68
2022/11/25 16:46:14;;;;;;;10.88;5.55;;;10.50;93.10;;;;;;5052679;28;20056;-68
2022/11/25 16:48:40;;;;;;;12.23;5.63;;;10.50;93.20;;;;;;5053810;28;20398;-69
2022/11/25 16:51:17;;;;;;;11.48;5.57;;;10.40;93.40;;;;;;5055393;28;20039;-68
2022/11/25 16:53:43;;;;;;;12.25;5.50;;;10.40;93.30;;;;;;5062866;28;20064;-68
2022/11/25 16:56:22;;;;;;;10.15;5.85;;;10.40;93.40;;;;;;5076609;28;20051;-68
2022/11/25 16:58:47;;;;;;;20.30;8.25;;;10.40;93.30;;;;;;5076947;28;20478;-68
2022/11/25 17:01:16;;;;;;;15.98;9.75;;;10.40;93.20;;;;;;5076209;28;20097;-68
2022/11/25 17:03:43;;;;;;;14.15;8.73;;;10.30;93.20;;;;;;5076734;28;20477;-68
2022/11/25 17:06:16;;;;;;;13.10;7.20;;;10.30;93.00;;;;;;5076523;28;20044;-68
2022/11/25 17:08:43;;;;;;;17.77;7.55;;;10.30;93.10;;;;;;5075928;28;20028;-68